Time;durP1;ratioP1;P1;durP2;ratioP2;P2;SDS_P1;SDS_P2;PMS_P1;PMS_P2;Temp;Humidity;BMP_temperature;BMP_pressure;BME280_temperature;BME280_humidity;BME280_pressure;Samples;Min_cycle;Max_cycle;Signal;HPM_P1;HPM_P2
2023/08/13 00:00:35;;;;;;;;;3.00;3.00;;;;;22.12;50.20;101220.84;5096139;27;69342;-75
2023/08/13 00:03:00;;;;;;;;;3.00;2.00;;;;;22.10;50.42;101212.94;5088181;27;64887;-75
2023/08/13 00:05:26;;;;;;;;;2.75;2.25;;;;;22.05;49.92;101212.38;5101625;27;45374;-75
2023/08/13 00:07:51;;;;;;;;;2.50;1.75;;;;;22.05;50.17;101214.22;5099658;27;45550;-75
2023/08/13 00:10:17;;;;;;;;;3.00;1.25;;;;;22.05;50.42;101212.38;5081688;27;46925;-77
2023/08/13 00:12:42;;;;;;;;;6.00;2.75;;;;;22.02;50.41;101217.91;5091564;27;45330;-78
2023/08/13 00:15:10;;;;;;;;;3.00;2.75;;;;;22.00;50.04;101215.34;5086050;27;45725;-78
2023/08/13 00:17:35;;;;;;;;;3.00;3.00;;;;;22.00;50.66;101212.69;5094646;27;45478;-77
2023/08/13 00:20:00;;;;;;;;;3.00;2.00;;;;;21.99;50.26;101207.47;5096556;27;48977;-76
2023/08/13 00:22:26;;;;;;;;;3.00;3.00;;;;;21.96;50.69;101199.69;5095038;27;45263;-78
2023/08/13 00:24:53;;;;;;;;;3.00;2.00;;;;;21.94;50.69;101207.78;5094119;27;45676;-78
2023/08/13 00:27:19;;;;;;;;;4.50;3.00;;;;;21.90;51.21;101195.63;5084734;27;45756;-78
2023/08/13 00:29:44;;;;;;;;;5.00;2.00;;;;;21.87;50.99;101205.63;5097005;27;74876;-76
2023/08/13 00:32:09;;;;;;;;;2.00;2.00;;;;;21.83;50.93;101194.31;5084153;27;45401;-77
2023/08/13 00:34:35;;;;;;;;;3.25;2.00;;;;;21.80;51.28;101195.38;5095430;27;45366;-76
2023/08/13 00:37:00;;;;;;;;;3.00;3.00;;;;;21.76;51.42;101183.25;5089125;27;45564;-79
2023/08/13 00:39:25;;;;;;;;;3.00;2.00;;;;;21.77;50.95;101194.75;5096725;27;45384;-76
2023/08/13 00:41:52;;;;;;;;;2.75;2.50;;;;;21.75;52.22;101196.66;5098438;27;59469;-76
2023/08/13 00:44:18;;;;;;;;;2.50;2.00;;;;;21.75;51.59;101191.34;5088580;27;45557;-75
2023/08/13 00:46:44;;;;;;;;;4.50;2.00;;;;;21.70;51.04;101188.97;5093815;27;45499;-76
2023/08/13 00:49:09;;;;;;;;;5.00;3.75;;;;;21.71;51.22;101185.34;5087481;27;46201;-75
2023/08/13 00:51:35;;;;;;;;;4.00;3.00;;;;;21.71;51.83;101188.03;5099503;27;45415;-76
2023/08/13 00:54:01;;;;;;;;;3.50;2.00;;;;;21.68;51.79;101185.56;5097060;27;45511;-76
2023/08/13 00:56:27;;;;;;;;;6.25;3.50;;;;;21.65;51.76;101182.25;5091983;27;66640;-76
2023/08/13 00:58:53;;;;;;;;;3.25;2.50;;;;;21.62;52.05;101191.31;5098070;27;46154;-76
2023/08/13 01:01:18;;;;;;;;;2.50;1.00;;;;;21.59;52.07;101184.34;5090609;27;45379;-76
2023/08/13 01:03:43;;;;;;;;;2.50;2.50;;;;;21.57;51.85;101180.09;5092260;27;61805;-76
2023/08/13 01:06:16;;;;;;;;;6.00;3.00;;;;;21.56;52.05;101189.03;5083466;27;49532;-76
2023/08/13 01:09:10;;;;;;;;;6.00;3.50;;;;;21.54;52.26;101186.47;5094669;27;45440;-75
2023/08/13 01:11:44;;;;;;;;;3.75;2.00;;;;;21.52;52.29;101183.06;5074648;27;45501;-77
2023/08/13 01:14:21;;;;;;;;;3.75;1.25;;;;;21.50;52.00;101184.13;5098304;27;45393;-76
2023/08/13 01:16:47;;;;;;;;;4.00;2.00;;;;;21.49;52.11;101171.75;5090144;27;45477;-77
2023/08/13 01:19:13;;;;;;;;;4.75;2.25;;;;;21.48;52.28;101178.03;5092940;27;69061;-76
2023/08/13 01:21:39;;;;;;;;;4.25;2.00;;;;;21.44;52.44;101177.34;5095163;27;73637;-76
2023/08/13 01:24:05;;;;;;;;;2.50;2.50;;;;;21.40;52.22;101184.66;5099286;27;45266;-76
2023/08/13 01:26:37;;;;;;;;;6.75;2.00;;;;;21.41;52.72;101182.88;5099878;27;45384;-76
2023/08/13 01:29:07;;;;;;;;;5.00;2.00;;;;;21.40;52.43;101181.16;5090310;27;45747;-76
2023/08/13 01:31:35;;;;;;;;;4.00;0.50;;;;;21.42;52.45;101184.56;5090313;27;45688;-76
2023/08/13 01:34:02;;;;;;;;;3.00;2.00;;;;;21.36;52.25;101174.34;5095081;27;45539;-76
2023/08/13 01:36:27;;;;;;;;;2.50;2.00;;;;;21.35;52.66;101173.47;5093371;27;45327;-76
2023/08/13 01:38:53;;;;;;;;;4.00;2.75;;;;;21.36;52.26;101174.34;5088273;27;46372;-76
2023/08/13 01:41:19;;;;;;;;;4.00;3.00;;;;;21.34;52.50;101179.75;5084805;27;45424;-76
2023/08/13 01:43:44;;;;;;;;;4.00;1.25;;;;;21.33;52.89;101172.72;5091786;27;62944;-77
2023/08/13 01:46:09;;;;;;;;;4.75;2.00;;;;;21.29;53.00;101171.22;5092633;27;72118;-76
2023/08/13 01:48:35;;;;;;;;;4.00;2.25;;;;;21.26;52.51;101182.06;5097860;27;55750;-76
2023/08/13 01:51:00;;;;;;;;;3.75;3.00;;;;;21.23;52.46;101172.47;5100146;27;47849;-75
2023/08/13 01:53:25;;;;;;;;;6.50;2.50;;;;;21.23;52.75;101172.47;5083347;27;59515;-75
2023/08/13 01:55:51;;;;;;;;;2.00;2.00;;;;;21.21;52.59;101171.72;5087219;27;45468;-75
2023/08/13 01:58:16;;;;;;;;;4.00;2.75;;;;;21.18;52.72;101165.75;5087660;27;56181;-75
2023/08/13 02:00:41;;;;;;;;;4.25;1.00;;;;;21.18;52.99;101169.25;5094967;27;62732;-75
2023/08/13 02:03:07;;;;;;;;;4.00;2.25;;;;;21.15;53.29;101160.63;5087883;27;65052;-75
2023/08/13 02:05:32;;;;;;;;;5.00;4.25;;;;;21.15;52.92;101168.59;5083723;27;49259;-75
2023/08/13 02:07:58;;;;;;;;;6.25;3.00;;;;;21.15;53.18;101172.09;5093763;27;57411;-75
2023/08/13 02:10:23;;;;;;;;;2.00;1.25;;;;;21.14;53.24;101173.06;5094925;27;52444;-75
2023/08/13 02:12:48;;;;;;;;;1.00;1.00;;;;;21.15;53.39;101173.94;5076434;27;63800;-75
2023/08/13 02:15:14;;;;;;;;;2.00;2.00;;;;;21.13;53.66;101168.69;5093308;27;48408;-77
2023/08/13 02:17:39;;;;;;;;;2.00;1.50;;;;;21.09;53.55;101175.19;5091679;27;51431;-78
2023/08/13 02:20:05;;;;;;;;;4.25;1.25;;;;;21.07;53.45;101174.44;5087512;27;65512;-77
2023/08/13 02:22:31;;;;;;;;;2.75;1.00;;;;;21.03;53.80;101171.13;5081252;27;45426;-77
2023/08/13 02:24:56;;;;;;;;;5.00;2.50;;;;;21.00;54.18;101175.75;5098249;27;45359;-78
2023/08/13 02:27:21;;;;;;;;;3.50;1.00;;;;;21.00;53.69;101189.94;5090447;27;73154;-77
2023/08/13 02:29:47;;;;;;;;;2.75;2.00;;;;;20.99;53.71;101187.34;5092261;27;70231;-77
2023/08/13 02:32:12;;;;;;;;;2.75;2.25;;;;;20.96;53.74;101187.53;5089365;27;53632;-76
2023/08/13 02:34:45;;;;;;;;;2.00;1.75;;;;;20.94;54.33;101189.44;5098337;27;70145;-75
2023/08/13 02:37:10;;;;;;;;;3.75;2.00;;;;;20.92;53.92;101178.06;5094797;27;45362;-75
2023/08/13 02:39:35;;;;;;;;;2.00;2.00;;;;;20.89;54.04;101171.09;5083805;27;58129;-75
2023/08/13 02:42:01;;;;;;;;;3.00;1.50;;;;;20.88;54.55;101166.75;5087327;27;45331;-76
2023/08/13 02:44:26;;;;;;;;;5.25;2.00;;;;;20.84;54.42;101167.88;5096165;27;63487;-76
2023/08/13 02:46:52;;;;;;;;;4.75;1.75;;;;;20.81;54.56;101163.63;5091372;27;46073;-76
2023/08/13 02:49:17;;;;;;;;;2.50;2.00;;;;;20.81;54.58;101171.59;5094821;27;45478;-77
2023/08/13 02:51:43;;;;;;;;;2.00;1.75;;;;;20.80;54.10;101169.88;5095559;27;64941;-76
2023/08/13 02:54:08;;;;;;;;;3.00;1.00;;;;;20.79;54.83;101164.69;5091227;27;45538;-76
2023/08/13 02:56:33;;;;;;;;;5.50;2.25;;;;;20.78;54.96;101161.16;5091355;27;75195;-76
2023/08/13 02:58:59;;;;;;;;;5.50;2.00;;;;;20.77;55.02;101158.59;5088160;27;68897;-76
2023/08/13 03:01:24;;;;;;;;;2.00;1.00;;;;;20.79;55.13;101148.72;5092010;27;65875;-77
2023/08/13 03:03:52;;;;;;;;;3.00;2.50;;;;;20.77;55.13;101150.59;5089165;27;59014;-76
2023/08/13 03:06:18;;;;;;;;;3.50;3.00;;;;;20.77;54.79;101150.59;5089215;27;46139;-76
2023/08/13 03:08:43;;;;;;;;;3.00;2.00;;;;;20.73;55.23;101155.25;5093045;27;45603;-75
2023/08/13 03:11:08;;;;;;;;;2.50;2.00;;;;;20.75;55.34;101155.16;5094718;27;59992;-76
2023/08/13 03:13:34;;;;;;;;;6.50;2.00;;;;;20.72;54.94;101150.91;5086611;27;57315;-75
2023/08/13 03:15:59;;;;;;;;;6.00;3.00;;;;;20.67;54.98;101140.56;5089356;27;68253;-75
2023/08/13 03:18:24;;;;;;;;;3.00;2.00;;;;;20.72;55.02;101137.63;5094934;27;62633;-75
2023/08/13 03:20:50;;;;;;;;;5.00;1.50;;;;;20.73;55.29;101135.81;5091354;27;64219;-76
2023/08/13 03:23:15;;;;;;;;;4.25;2.00;;;;;20.71;55.50;101140.38;5094533;27;66283;-77
2023/08/13 03:25:40;;;;;;;;;2.50;2.00;;;;;20.69;55.80;101143.13;5090002;27;71231;-77
2023/08/13 03:28:06;;;;;;;;;2.00;1.25;;;;;20.67;55.46;101153.00;5075906;27;48403;-77
2023/08/13 03:30:31;;;;;;;;;4.25;2.75;;;;;20.63;55.36;101138.19;5087889;27;59228;-77
2023/08/13 03:32:56;;;;;;;;;4.00;2.25;;;;;20.64;55.85;101143.41;5081199;27;53946;-78
2023/08/13 03:35:22;;;;;;;;;3.50;2.00;;;;;20.64;55.88;101145.22;5079564;27;68297;-78
2023/08/13 03:37:47;;;;;;;;;5.00;2.00;;;;;20.62;55.46;101150.63;5089446;27;45540;-78
2023/08/13 03:40:12;;;;;;;;;4.00;2.00;;;;;20.59;55.82;101152.59;5089746;27;45405;-78
2023/08/13 03:42:38;;;;;;;;;3.00;3.00;;;;;20.57;56.15;101149.19;5075164;27;47934;-78
2023/08/13 03:45:04;;;;;;;;;5.00;2.75;;;;;20.53;56.04;101143.19;5082689;27;45705;-75
2023/08/13 03:47:29;;;;;;;;;3.00;3.00;;;;;20.51;56.57;101145.09;5084886;27;45853;-75
2023/08/13 03:49:55;;;;;;;;;4.50;1.75;;;;;20.49;56.90;101147.84;5091959;27;45545;-75
2023/08/13 03:52:20;;;;;;;;;8.50;2.00;;;;;20.48;56.31;101151.44;5092535;27;59418;-75
2023/08/13 03:54:45;;;;;;;;;4.00;3.00;;;;;20.44;56.73;101149.94;5085766;27;47005;-76
2023/08/13 03:57:11;;;;;;;;;4.50;2.75;;;;;20.43;56.79;101144.72;5097696;27;50445;-77
2023/08/13 03:59:36;;;;;;;;;4.75;2.00;;;;;20.40;56.83;101139.59;5082684;27;49495;-75
2023/08/13 04:02:01;;;;;;;;;4.25;3.00;;;;;20.38;56.81;101149.44;5094877;27;45595;-78
2023/08/13 04:04:27;;;;;;;;;6.25;1.50;;;;;20.34;56.90;101143.47;5109003;27;45884;-75
2023/08/13 04:06:52;;;;;;;;;6.50;2.50;;;;;20.34;56.92;101145.28;5095952;27;64285;-76
2023/08/13 04:09:17;;;;;;;;;4.75;2.00;;;;;20.34;57.22;101147.94;5087435;27;45327;-77
2023/08/13 04:11:43;;;;;;;;;3.25;2.00;;;;;20.31;57.89;101146.34;5097919;27;65729;-75
2023/08/13 04:14:09;;;;;;;;;4.50;2.00;;;;;20.27;57.74;101139.47;5093753;27;47989;-76
2023/08/13 04:16:34;;;;;;;;;3.00;2.00;;;;;20.25;57.61;101144.03;5093014;27;45524;-75
2023/08/13 04:18:59;;;;;;;;;3.25;2.00;;;;;20.23;57.98;101156.56;5100668;27;45415;-76
2023/08/13 04:21:27;;;;;;;;;2.25;2.00;;;;;20.17;57.88;101154.28;5097116;27;72776;-75
2023/08/13 04:23:56;;;;;;;;;5.00;2.50;;;;;20.15;58.03;101145.53;5084330;27;45947;-75
2023/08/13 04:26:22;;;;;;;;;2.25;2.00;;;;;20.13;58.24;101155.41;5083277;27;45670;-77
2023/08/13 04:28:48;;;;;;;;;3.50;2.00;;;;;20.09;57.94;101152.09;5100325;27;45473;-76
2023/08/13 04:31:13;;;;;;;;;2.50;1.75;;;;;20.06;58.50;101153.16;5095356;27;48934;-76
2023/08/13 04:33:38;;;;;;;;;4.50;2.00;;;;;20.05;58.27;101159.41;5087462;27;46773;-76
2023/08/13 04:36:04;;;;;;;;;7.75;3.00;;;;;20.04;58.38;101162.13;5096693;27;63681;-76
2023/08/13 04:38:29;;;;;;;;;4.00;2.00;;;;;20.00;58.81;101156.16;5086975;27;46848;-76
2023/08/13 04:40:55;;;;;;;;;4.00;3.00;;;;;20.00;58.21;101156.16;5095359;27;45598;-74
2023/08/13 04:43:20;;;;;;;;;3.00;2.00;;;;;20.00;58.62;101163.28;5091742;27;57925;-75
2023/08/13 04:45:46;;;;;;;;;1.50;1.50;;;;;19.94;58.75;101153.88;5087842;27;45327;-75
2023/08/13 04:48:38;;;;;;;;;3.00;2.00;;;;;19.94;58.54;101155.66;5089382;27;45401;-75
2023/08/13 04:51:04;;;;;;;;;1.00;1.00;;;;;19.94;58.90;101160.97;5098720;27;45380;-75
2023/08/13 04:53:29;;;;;;;;;5.25;2.75;;;;;19.93;59.00;101152.16;5095035;27;45830;-74
2023/08/13 04:55:54;;;;;;;;;6.25;2.00;;;;;19.95;59.36;101158.22;5094066;27;57900;-74
2023/08/13 04:58:20;;;;;;;;;4.50;2.00;;;;;19.96;59.84;101159.94;5087867;27;58874;-75
2023/08/13 05:00:45;;;;;;;;;2.00;2.00;;;;;19.94;59.23;101156.53;5092172;27;45457;-75
2023/08/13 05:03:11;;;;;;;;;4.50;2.25;;;;;19.95;58.87;101155.56;5087922;27;45517;-77
2023/08/13 05:05:36;;;;;;;;;4.50;2.00;;;;;19.94;58.96;101155.66;5094665;27;45785;-76
2023/08/13 05:08:01;;;;;;;;;4.00;2.25;;;;;19.95;59.58;101160.88;5089150;27;61764;-76
2023/08/13 05:10:27;;;;;;;;;4.00;2.00;;;;;19.94;58.94;101159.19;5086848;27;45492;-76
2023/08/13 05:12:52;;;;;;;;;5.25;2.00;;;;;19.97;59.50;101163.47;5097442;27;64410;-77
2023/08/13 05:15:17;;;;;;;;;3.00;2.50;;;;;19.98;59.12;101157.22;5095945;27;45459;-76
2023/08/13 05:17:43;;;;;;;;;3.50;3.00;;;;;20.00;59.33;101153.50;5088108;27;64352;-75
2023/08/13 05:20:08;;;;;;;;;3.00;2.00;;;;;20.01;59.34;101160.53;5085380;27;58268;-75
2023/08/13 05:22:33;;;;;;;;;3.50;2.00;;;;;20.01;59.27;101162.31;5082429;27;46322;-76
2023/08/13 05:24:59;;;;;;;;;2.50;2.00;;;;;20.00;59.11;101150.84;5086880;27;58510;-76
2023/08/13 05:27:24;;;;;;;;;2.75;2.00;;;;;20.02;59.34;101154.25;5098105;27;45315;-75
2023/08/13 05:29:49;;;;;;;;;2.50;2.00;;;;;20.05;59.48;101159.41;5086197;27;45760;-76
2023/08/13 05:32:16;;;;;;;;;3.00;1.75;;;;;20.07;59.44;101161.97;5090532;27;48432;-76
2023/08/13 05:34:43;;;;;;;;;2.00;2.00;;;;;20.07;59.53;101159.31;5087728;27;45337;-76
2023/08/13 05:37:08;;;;;;;;;2.00;2.00;;;;;20.10;59.42;101159.13;5092478;27;45265;-77
2023/08/13 05:39:33;;;;;;;;;2.25;1.00;;;;;20.10;59.57;101159.97;5098816;27;50747;-76
2023/08/13 05:41:59;;;;;;;;;3.25;2.00;;;;;20.10;59.37;101154.66;5100003;27;48177;-76
2023/08/13 05:44:24;;;;;;;;;3.75;2.00;;;;;20.13;59.40;101158.91;5090528;27;45229;-77
2023/08/13 05:46:49;;;;;;;;;4.00;2.00;;;;;20.16;59.57;101168.53;5089822;27;63614;-76
2023/08/13 05:49:15;;;;;;;;;3.75;1.25;;;;;20.14;59.58;101171.28;5092210;27;67853;-76
2023/08/13 05:51:40;;;;;;;;;2.25;1.50;;;;;20.12;59.26;101170.50;5084126;27;45520;-76
2023/08/13 05:54:08;;;;;;;;;3.00;2.00;;;;;20.12;59.21;101173.16;5098998;27;49772;-76
2023/08/13 05:56:33;;;;;;;;;4.25;1.75;;;;;20.15;59.58;101172.13;5084778;27;45511;-75
2023/08/13 05:58:58;;;;;;;;;4.75;2.25;;;;;20.17;59.92;101164.91;5092003;27;64214;-76
2023/08/13 06:01:24;;;;;;;;;2.50;1.75;;;;;20.19;59.61;101171.84;5094763;27;59819;-75
2023/08/13 06:03:49;;;;;;;;;3.00;2.00;;;;;20.20;59.71;101175.34;5082899;27;45301;-75
2023/08/13 06:06:15;;;;;;;;;2.25;2.00;;;;;20.20;59.57;101175.34;5089205;27;45343;-76
2023/08/13 06:08:40;;;;;;;;;4.50;2.50;;;;;20.21;59.73;101180.59;5080389;27;45478;-76
2023/08/13 06:11:06;;;;;;;;;4.00;2.50;;;;;20.24;59.54;101179.56;5085966;27;68463;-76
2023/08/13 06:13:38;;;;;;;;;5.50;2.00;;;;;20.22;59.55;101177.00;5084770;27;63785;-76
2023/08/13 06:16:04;;;;;;;;;1.50;1.00;;;;;20.27;59.79;101182.00;5068168;27;45491;-76
2023/08/13 06:18:29;;;;;;;;;4.75;2.75;;;;;20.27;59.91;101177.56;5085365;27;45650;-77
2023/08/13 06:20:55;;;;;;;;;4.25;2.00;;;;;20.32;59.73;101181.75;5093133;27;46023;-76
2023/08/13 06:23:20;;;;;;;;;3.50;2.25;;;;;20.33;59.76;101184.31;5093056;27;56442;-76
2023/08/13 06:25:46;;;;;;;;;3.00;3.00;;;;;20.36;59.22;101184.13;5083453;27;59970;-76
2023/08/13 06:28:12;;;;;;;;;3.00;2.00;;;;;20.41;59.21;101190.00;5099021;27;45236;-77
2023/08/13 06:30:37;;;;;;;;;3.25;1.00;;;;;20.40;59.76;101172.34;5085515;27;46380;-77
2023/08/13 06:33:03;;;;;;;;;3.75;2.00;;;;;20.45;59.23;101182.69;5090617;27;45437;-76
2023/08/13 06:35:29;;;;;;;;;1.75;1.75;;;;;20.47;59.07;101184.31;5099219;27;45355;-77
2023/08/13 06:37:54;;;;;;;;;4.00;1.75;;;;;20.54;59.48;101183.94;5085697;27;54454;-75
2023/08/13 06:40:19;;;;;;;;;6.75;2.00;;;;;20.56;59.01;101180.25;5087336;27;63852;-77
2023/08/13 06:42:45;;;;;;;;;3.00;1.50;;;;;20.58;59.13;101182.81;5095366;27;68003;-77
2023/08/13 06:45:10;;;;;;;;;3.00;2.00;;;;;20.61;58.91;101180.84;5083983;27;45496;-77
2023/08/13 06:47:36;;;;;;;;;3.75;2.00;;;;;20.66;59.02;101180.53;5091174;27;45507;-76
2023/08/13 06:50:01;;;;;;;;;3.00;2.50;;;;;20.67;58.71;101176.94;5092833;27;66815;-76
2023/08/13 06:52:27;;;;;;;;;7.25;3.00;;;;;20.74;59.19;101177.41;5085954;27;68179;-76
2023/08/13 06:54:52;;;;;;;;;4.50;1.50;;;;;20.75;58.64;101179.09;5098538;27;45353;-76
2023/08/13 06:57:17;;;;;;;;;3.00;1.00;;;;;20.75;59.05;101181.78;5094381;27;68016;-76
2023/08/13 06:59:43;;;;;;;;;1.50;1.50;;;;;20.76;58.77;101187.00;5091238;27;45427;-77
2023/08/13 07:02:08;;;;;;;;;6.00;1.75;;;;;20.75;58.46;101185.31;5087956;27;45443;-76
2023/08/13 07:04:33;;;;;;;;;4.25;1.25;;;;;20.75;58.14;101182.66;5092348;27;66630;-78
2023/08/13 07:06:59;;;;;;;;;1.00;1.00;;;;;20.73;58.41;101184.53;5096386;27;62352;-74
2023/08/13 07:09:27;;;;;;;;;3.50;2.50;;;;;20.75;58.38;101179.09;5093496;27;46529;-77
2023/08/13 07:11:52;;;;;;;;;2.00;2.00;;;;;20.75;58.20;101185.31;5089580;27;47127;-76
2023/08/13 07:14:18;;;;;;;;;2.00;2.00;;;;;20.79;58.20;101188.63;5090924;27;46125;-73
2023/08/13 07:16:43;;;;;;;;;2.00;2.00;;;;;20.81;58.33;101192.88;5075728;27;69434;-75
2023/08/13 07:19:08;;;;;;;;;3.00;1.25;;;;;20.88;58.11;101188.03;5094356;27;47160;-82
2023/08/13 07:21:34;;;;;;;;;2.00;1.00;;;;;20.92;57.91;101180.72;5094432;27;61474;-77
2023/08/13 07:23:59;;;;;;;;;3.00;1.75;;;;;20.93;57.99;101180.63;5086641;27;45553;-75
2023/08/13 07:26:25;;;;;;;;;3.75;1.00;;;;;21.00;57.51;101183.72;5093775;27;45463;-76
2023/08/13 07:28:50;;;;;;;;;5.00;1.00;;;;;21.07;57.76;101187.72;5096268;27;45574;-77
2023/08/13 07:31:19;;;;;;;;;4.50;3.50;;;;;21.12;57.56;101177.63;5092896;27;57025;-75
2023/08/13 07:33:44;;;;;;;;;4.25;1.00;;;;;21.16;57.60;101178.28;5086946;27;45220;-75
2023/08/13 07:36:09;;;;;;;;;2.00;2.00;;;;;21.22;56.86;101183.22;5087200;27;67306;-76
2023/08/13 07:38:36;;;;;;;;;3.50;1.25;;;;;21.30;57.29;101186.25;5088476;27;45498;-76
2023/08/13 07:41:03;;;;;;;;;4.00;1.25;;;;;21.36;56.86;101183.16;5088233;27;45231;-73
2023/08/13 07:43:30;;;;;;;;;4.75;1.25;;;;;21.49;56.63;101193.06;5086354;27;45259;-74
2023/08/13 07:45:55;;;;;;;;;1.75;1.00;;;;;21.55;56.49;101184.69;5091833;27;45461;-73
2023/08/13 07:48:21;;;;;;;;;2.00;2.00;;;;;21.60;56.00;101183.41;5085539;27;45326;-74
2023/08/13 07:50:46;;;;;;;;;2.75;1.00;;;;;21.64;55.24;101181.41;5092434;27;45336;-80
2023/08/13 07:53:12;;;;;;;;;2.50;2.00;;;;;21.71;56.06;101179.16;5093232;27;45510;-76
2023/08/13 07:55:37;;;;;;;;;2.00;0.75;;;;;21.77;55.44;101182.25;5080870;27;73008;-78
2023/08/13 07:58:03;;;;;;;;;1.75;1.00;;;;;21.85;54.87;101183.56;5091489;27;70116;-79
2023/08/13 08:00:28;;;;;;;;;3.00;1.50;;;;;21.90;54.99;101182.31;5081292;27;45475;-76
2023/08/13 08:02:54;;;;;;;;;2.25;2.00;;;;;21.94;55.03;101182.97;5079322;27;45633;-75
2023/08/13 08:05:20;;;;;;;;;1.00;1.00;;;;;21.97;54.57;101180.94;5090772;27;45549;-78
2023/08/13 08:07:45;;;;;;;;;3.00;1.00;;;;;22.04;54.04;101184.00;5083855;27;47482;-76
2023/08/13 08:10:11;;;;;;;;;2.25;1.25;;;;;22.11;54.01;101179.97;5099190;27;69479;-78
2023/08/13 08:12:36;;;;;;;;;1.25;1.25;;;;;22.15;54.14;101178.81;5096938;27;45300;-78
2023/08/13 08:15:03;;;;;;;;;1.00;1.00;;;;;22.19;53.18;101180.31;5099676;27;52490;-83
2023/08/13 08:17:28;;;;;;;;;3.75;1.00;;;;;22.23;53.65;101174.78;5075506;27;46837;-80
2023/08/13 08:19:54;;;;;;;;;1.00;1.00;;;;;22.26;53.58;101182.56;5077759;27;45661;-81
2023/08/13 08:22:19;;;;;;;;;2.75;1.00;;;;;22.32;52.80;101180.34;5098062;27;47320;-76
2023/08/13 08:24:44;;;;;;;;;4.00;1.75;;;;;22.39;52.94;101182.59;5095128;27;45448;-74
2023/08/13 08:27:10;;;;;;;;;3.00;2.00;;;;;22.43;52.66;101182.25;5092219;27;47224;-73
2023/08/13 08:29:36;;;;;;;;;1.00;1.00;;;;;22.45;52.54;101176.81;5095065;27;54052;-75
2023/08/13 08:32:01;;;;;;;;;3.00;1.00;;;;;22.50;53.02;101180.00;5098260;27;45473;-74
2023/08/13 08:34:27;;;;;;;;;1.50;0.50;;;;;22.55;52.95;101184.06;5093184;27;45260;-74
2023/08/13 08:36:52;;;;;;;;;3.50;1.00;;;;;22.59;52.73;101179.38;5076863;27;46115;-76
2023/08/13 08:39:21;;;;;;;;;3.00;1.00;;;;;22.65;53.07;101178.94;5090913;27;56857;-75
2023/08/13 08:41:47;;;;;;;;;0.50;0.50;;;;;22.72;52.31;101180.22;5105047;27;45870;-78
2023/08/13 08:44:20;;;;;;;;;1.50;0.75;;;;;22.75;52.40;101181.78;5093058;27;45706;-73
2023/08/13 08:46:47;;;;;;;;;2.75;1.00;;;;;22.76;52.40;101170.16;5093998;27;45434;-75
2023/08/13 08:49:14;;;;;;;;;4.50;1.50;;;;;22.78;51.98;101173.56;5080603;27;45390;-75
2023/08/13 08:51:39;;;;;;;;;2.75;1.00;;;;;22.77;51.11;101166.56;5091591;27;45813;-75
2023/08/13 08:54:04;;;;;;;;;0.75;0.75;;;;;22.75;51.90;101171.13;5093206;27;57791;-74
2023/08/13 08:56:30;;;;;;;;;1.00;1.00;;;;;22.70;51.72;101165.25;5088874;27;46150;-74
2023/08/13 08:59:01;;;;;;;;;3.25;1.00;;;;;22.74;51.94;101172.09;5084430;27;45362;-79
2023/08/13 09:01:26;;;;;;;;;3.00;1.25;;;;;22.74;51.11;101169.44;5091337;27;45737;-77
2023/08/13 09:03:51;;;;;;;;;0.75;0.25;;;;;22.74;51.33;101164.09;5076413;27;62445;-77
2023/08/13 09:06:17;;;;;;;;;3.75;1.00;;;;;22.75;51.62;101168.44;5097588;27;54276;-77
2023/08/13 09:08:42;;;;;;;;;1.25;1.00;;;;;22.79;51.39;101167.28;5096665;27;45609;-76
2023/08/13 09:11:09;;;;;;;;;2.00;1.00;;;;;22.75;51.14;101169.31;5096128;27;61496;-73
2023/08/13 09:13:34;;;;;;;;;2.50;1.25;;;;;22.80;50.59;101170.81;5096288;27;45501;-75
2023/08/13 09:15:59;;;;;;;;;1.50;1.50;;;;;22.80;50.89;101176.97;5093073;27;45637;-77
2023/08/13 09:18:25;;;;;;;;;0.25;0.25;;;;;22.84;50.67;101172.28;5101911;27;56080;-76
2023/08/13 09:20:50;;;;;;;;;0.00;0.00;;;;;22.86;49.93;101171.22;5089922;27;50614;-75
2023/08/13 09:23:22;;;;;;;;;0.00;0.00;;;;;22.89;49.93;101162.13;5099541;27;45479;-73
2023/08/13 09:25:55;;;;;;;;;2.00;0.00;;;;;22.94;50.15;101173.31;5089101;27;45246;-73
2023/08/13 09:28:21;;;;;;;;;0.00;0.00;;;;;23.00;49.79;101175.56;5086111;27;45540;-72
2023/08/13 09:30:46;;;;;;;;;2.50;0.75;;;;;23.06;49.60;101168.97;5083478;27;45512;-73
2023/08/13 09:33:14;;;;;;;;;1.25;0.75;;;;;23.10;49.80;101165.94;5090642;27;45616;-75
2023/08/13 09:35:41;;;;;;;;;1.00;0.00;;;;;23.16;49.49;101167.34;5087673;27;45724;-75
2023/08/13 09:38:06;;;;;;;;;1.75;0.00;;;;;23.18;49.21;101161.84;5075611;27;46874;-70
2023/08/13 09:40:31;;;;;;;;;0.50;0.00;;;;;23.17;49.18;101168.16;5087058;27;66838;-70
2023/08/13 09:42:58;;;;;;;;;0.75;0.00;;;;;23.19;49.40;101164.41;5086386;27;55888;-71
2023/08/13 09:45:26;;;;;;;;;2.00;0.00;;;;;23.24;48.74;101156.06;5079563;27;46168;-70
2023/08/13 09:47:54;;;;;;;;;0.25;0.00;;;;;23.24;48.19;101153.41;5087042;27;45468;-71
2023/08/13 09:50:21;;;;;;;;;0.25;0.00;;;;;23.27;48.55;101158.53;5084948;27;45453;-72
2023/08/13 09:52:47;;;;;;;;;2.75;0.25;;;;;23.29;48.12;101154.75;5094968;27;45439;-71
2023/08/13 09:55:14;;;;;;;;;0.25;0.25;;;;;23.28;48.24;101152.19;5088696;27;45650;-72
2023/08/13 09:57:41;;;;;;;;;0.00;0.00;;;;;23.30;48.45;101153.81;5099678;27;45360;-70
2023/08/13 10:00:09;;;;;;;;;2.00;1.00;;;;;23.35;48.75;101153.44;5092877;27;45419;-71
2023/08/13 10:02:35;;;;;;;;;0.25;0.25;;;;;23.42;48.12;101152.03;5101603;27;46185;-71
2023/08/13 10:05:00;;;;;;;;;1.75;0.25;;;;;23.44;48.14;101143.91;5097704;27;45761;-71
2023/08/13 10:07:26;;;;;;;;;1.50;0.00;;;;;23.50;47.49;101138.13;5081991;27;45418;-71
2023/08/13 10:09:53;;;;;;;;;2.25;1.00;;;;;23.55;47.49;101140.41;5103478;27;45488;-71
2023/08/13 10:12:18;;;;;;;;;0.25;0.00;;;;;23.62;47.72;101138.97;5104004;27;45484;-71
2023/08/13 10:14:44;;;;;;;;;0.50;0.25;;;;;23.67;47.54;101140.38;5096723;27;75813;-71
2023/08/13 10:17:16;;;;;;;;;0.25;0.25;;;;;23.71;47.67;101132.97;5085157;27;50719;-71
2023/08/13 10:19:46;;;;;;;;;1.00;1.00;;;;;23.79;47.65;101138.56;5097298;27;45324;-71
2023/08/13 10:22:11;;;;;;;;;0.25;0.25;;;;;23.85;47.15;101142.59;5078032;27;45719;-71
2023/08/13 10:24:37;;;;;;;;;0.75;0.75;;;;;23.94;47.47;101135.69;5076583;27;47072;-71
2023/08/13 10:27:03;;;;;;;;;1.00;0.25;;;;;23.94;47.44;101136.56;5084748;27;49594;-71
2023/08/13 10:29:36;;;;;;;;;1.25;1.25;;;;;23.90;47.06;101136.91;5083241;27;54958;-71
2023/08/13 10:32:11;;;;;;;;;6.75;2.50;;;;;23.84;47.16;101135.56;5088388;27;45327;-71
2023/08/13 10:34:47;;;;;;;;;1.75;1.75;;;;;23.78;47.29;101139.53;5091680;27;47305;-72
2023/08/13 10:37:19;;;;;;;;;4.00;2.00;;;;;23.77;47.36;101137.81;5087104;27;45633;-72
2023/08/13 10:40:12;;;;;;;;;3.00;1.00;;;;;23.70;46.41;101134.75;5096954;27;46255;-70
2023/08/13 10:42:38;;;;;;;;;4.50;2.00;;;;;23.67;47.25;101136.81;5093893;27;45445;-71
2023/08/13 10:45:07;;;;;;;;;2.33;1.00;;;;;23.65;46.71;101134.25;5084819;27;46192;-71
2023/08/13 10:47:56;;;;;;;;;2.75;2.25;;;;;23.66;47.25;101124.44;5068826;27;45309;-71
2023/08/13 10:50:43;;;;;;;;;2.25;0.25;;;;;23.72;47.34;101126.63;5088845;27;45460;-71
2023/08/13 10:53:26;;;;;;;;;2.00;1.00;;;;;23.76;46.36;101129.91;5097750;27;45514;-71
2023/08/13 10:55:55;;;;;;;;;0.75;0.50;;;;;23.79;47.08;101130.53;5094008;27;47025;-71
2023/08/13 10:58:37;;;;;;;;;0.75;0.75;;;;;23.83;46.83;101118.69;5090257;27;45475;-71
2023/08/13 11:01:22;;;;;;;;;1.25;0.25;;;;;23.86;47.11;101120.25;5088595;27;45363;-71
2023/08/13 11:03:54;;;;;;;;;2.75;0.25;;;;;23.95;47.66;101129.41;5092610;27;45447;-71
2023/08/13 11:06:22;;;;;;;;;1.50;1.00;;;;;23.96;46.83;101109.72;5090367;27;46259;-71
2023/08/13 11:08:47;;;;;;;;;3.25;1.50;;;;;24.06;47.21;101111.56;5096729;27;45439;-72
2023/08/13 11:11:13;;;;;;;;;0.25;0.25;;;;;24.23;47.32;101117.41;5098643;27;64739;-71
2023/08/13 11:13:39;;;;;;;;;2.50;1.75;;;;;24.47;46.87;101111.94;5093513;27;45669;-71
2023/08/13 11:16:05;;;;;;;;;0.25;0.00;;;;;24.74;46.84;101105.38;5094806;27;70330;-71
2023/08/13 11:18:30;;;;;;;;;2.75;1.00;;;;;24.93;45.05;101097.53;5093221;27;45479;-71
2023/08/13 11:20:55;;;;;;;;;1.25;1.25;;;;;25.14;44.67;101094.06;5090939;27;49356;-70